sensor_id;sensor_type;location;lat;lon;timestamp;P1;durP1;ratioP1;P2;durP2;ratioP2
64199;SDS011;50516;52.272;5.136;2023-06-19T00:00:01;11.23;;;8.93;;
64199;SDS011;50516;52.272;5.136;2023-06-19T00:02:32;12.57;;;9.32;;
64199;SDS011;50516;52.272;5.136;2023-06-19T00:04:57;11.65;;;8.65;;
64199;SDS011;50516;52.272;5.136;2023-06-19T00:07:22;10.48;;;9.00;;
64199;SDS011;50516;52.272;5.136;2023-06-19T00:09:48;13.25;;;9.00;;
64199;SDS011;50516;52.272;5.136;2023-06-19T00:12:13;11.68;;;9.35;;
64199;SDS011;50516;52.272;5.136;2023-06-19T00:14:38;9.73;;;8.73;;
64199;SDS011;50516;52.272;5.136;2023-06-19T00:17:04;10.10;;;8.18;;
64199;SDS011;50516;52.272;5.136;2023-06-19T00:19:30;11.55;;;8.40;;
64199;SDS011;50516;52.272;5.136;2023-06-19T00:22:01;11.07;;;8.23;;
64199;SDS011;50516;52.272;5.136;2023-06-19T00:24:26;9.27;;;8.20;;
64199;SDS011;50516;52.272;5.136;2023-06-19T00:26:52;11.38;;;8.38;;
64199;SDS011;50516;52.272;5.136;2023-06-19T00:29:17;13.68;;;8.65;;
64199;SDS011;50516;52.272;5.136;2023-06-19T00:31:42;10.35;;;8.30;;
64199;SDS011;50516;52.272;5.136;2023-06-19T00:34:08;11.90;;;9.32;;
64199;SDS011;50516;52.272;5.136;2023-06-19T00:36:33;11.65;;;8.10;;
64199;SDS011;50516;52.272;5.136;2023-06-19T00:39:06;9.82;;;7.68;;
64199;SDS011;50516;52.272;5.136;2023-06-19T00:41:33;12.02;;;8.40;;
64199;SDS011;50516;52.272;5.136;2023-06-19T00:44:01;10.95;;;7.65;;
64199;SDS011;50516;52.272;5.136;2023-06-19T00:46:27;9.75;;;8.05;;
64199;SDS011;50516;52.272;5.136;2023-06-19T00:48:52;11.05;;;7.85;;
64199;SDS011;50516;52.272;5.136;2023-06-19T00:51:17;11.48;;;7.20;;
64199;SDS011;50516;52.272;5.136;2023-06-19T00:53:43;10.50;;;7.82;;
64199;SDS011;50516;52.272;5.136;2023-06-19T00:56:08;9.73;;;7.40;;
64199;SDS011;50516;52.272;5.136;2023-06-19T00:58:34;8.65;;;7.13;;
64199;SDS011;50516;52.272;5.136;2023-06-19T01:01:00;11.35;;;7.15;;
64199;SDS011;50516;52.272;5.136;2023-06-19T01:03:25;11.82;;;8.02;;
64199;SDS011;50516;52.272;5.136;2023-06-19T01:05:51;11.63;;;7.13;;
64199;SDS011;50516;52.272;5.136;2023-06-19T01:11:00;9.13;;;7.07;;
64199;SDS011;50516;52.272;5.136;2023-06-19T01:13:41;8.02;;;5.70;;
64199;SDS011;50516;52.272;5.136;2023-06-19T01:16:08;6.68;;;5.18;;
64199;SDS011;50516;52.272;5.136;2023-06-19T01:18:35;7.90;;;5.80;;
64199;SDS011;50516;52.272;5.136;2023-06-19T01:21:11;13.30;;;5.40;;
64199;SDS011;50516;52.272;5.136;2023-06-19T01:23:38;8.73;;;4.45;;
64199;SDS011;50516;52.272;5.136;2023-06-19T01:26:03;6.15;;;4.68;;
64199;SDS011;50516;52.272;5.136;2023-06-19T01:28:29;6.50;;;4.40;;
64199;SDS011;50516;52.272;5.136;2023-06-19T01:30:54;6.07;;;3.92;;
64199;SDS011;50516;52.272;5.136;2023-06-19T01:33:25;7.28;;;3.70;;
64199;SDS011;50516;52.272;5.136;2023-06-19T01:35:53;5.30;;;3.55;;
64199;SDS011;50516;52.272;5.136;2023-06-19T01:38:22;6.00;;;4.15;;
64199;SDS011;50516;52.272;5.136;2023-06-19T01:40:50;4.75;;;3.40;;
64199;SDS011;50516;52.272;5.136;2023-06-19T01:43:19;6.28;;;3.83;;
64199;SDS011;50516;52.272;5.136;2023-06-19T01:45:45;6.15;;;3.47;;
64199;SDS011;50516;52.272;5.136;2023-06-19T01:48:10;6.80;;;3.50;;
64199;SDS011;50516;52.272;5.136;2023-06-19T01:50:35;8.02;;;3.35;;
64199;SDS011;50516;52.272;5.136;2023-06-19T01:53:01;9.73;;;3.72;;
64199;SDS011;50516;52.272;5.136;2023-06-19T01:55:26;6.40;;;4.03;;
64199;SDS011;50516;52.272;5.136;2023-06-19T01:57:51;9.35;;;4.40;;
64199;SDS011;50516;52.272;5.136;2023-06-19T02:00:17;6.38;;;3.90;;
64199;SDS011;50516;52.272;5.136;2023-06-19T02:02:43;9.45;;;3.83;;
64199;SDS011;50516;52.272;5.136;2023-06-19T02:05:08;10.50;;;5.22;;
64199;SDS011;50516;52.272;5.136;2023-06-19T02:07:34;5.45;;;3.92;;
64199;SDS011;50516;52.272;5.136;2023-06-19T02:09:59;5.63;;;4.03;;
64199;SDS011;50516;52.272;5.136;2023-06-19T02:12:25;9.68;;;4.47;;
64199;SDS011;50516;52.272;5.136;2023-06-19T02:14:50;7.50;;;4.88;;
64199;SDS011;50516;52.272;5.136;2023-06-19T02:17:15;7.65;;;4.18;;
64199;SDS011;50516;52.272;5.136;2023-06-19T02:19:41;6.65;;;4.90;;
64199;SDS011;50516;52.272;5.136;2023-06-19T02:22:06;8.23;;;4.75;;
64199;SDS011;50516;52.272;5.136;2023-06-19T02:24:31;5.50;;;4.25;;
64199;SDS011;50516;52.272;5.136;2023-06-19T02:26:57;6.75;;;4.60;;
64199;SDS011;50516;52.272;5.136;2023-06-19T02:29:23;9.15;;;5.78;;
64199;SDS011;50516;52.272;5.136;2023-06-19T02:31:49;8.23;;;4.47;;
64199;SDS011;50516;52.272;5.136;2023-06-19T02:34:14;6.47;;;4.95;;
64199;SDS011;50516;52.272;5.136;2023-06-19T02:36:40;8.50;;;5.25;;
64199;SDS011;50516;52.272;5.136;2023-06-19T02:39:05;7.80;;;4.78;;
64199;SDS011;50516;52.272;5.136;2023-06-19T02:41:31;7.22;;;5.32;;
64199;SDS011;50516;52.272;5.136;2023-06-19T02:43:57;6.82;;;5.30;;
64199;SDS011;50516;52.272;5.136;2023-06-19T02:46:22;6.38;;;5.40;;
64199;SDS011;50516;52.272;5.136;2023-06-19T02:48:47;7.57;;;5.32;;
64199;SDS011;50516;52.272;5.136;2023-06-19T02:51:13;7.10;;;5.63;;
64199;SDS011;50516;52.272;5.136;2023-06-19T02:53:38;7.20;;;5.43;;
64199;SDS011;50516;52.272;5.136;2023-06-19T02:56:03;8.27;;;4.90;;
64199;SDS011;50516;52.272;5.136;2023-06-19T02:58:29;6.90;;;5.32;;
64199;SDS011;50516;52.272;5.136;2023-06-19T03:00:56;6.75;;;5.25;;
64199;SDS011;50516;52.272;5.136;2023-06-19T03:03:21;6.70;;;5.40;;
64199;SDS011;50516;52.272;5.136;2023-06-19T03:05:47;6.88;;;5.68;;
64199;SDS011;50516;52.272;5.136;2023-06-19T03:08:13;7.22;;;6.10;;
64199;SDS011;50516;52.272;5.136;2023-06-19T03:10:38;7.50;;;6.38;;
64199;SDS011;50516;52.272;5.136;2023-06-19T03:13:04;7.68;;;6.03;;
64199;SDS011;50516;52.272;5.136;2023-06-19T03:15:29;10.00;;;6.35;;
64199;SDS011;50516;52.272;5.136;2023-06-19T03:17:54;8.43;;;6.68;;
64199;SDS011;50516;52.272;5.136;2023-06-19T03:20:20;8.82;;;6.18;;
64199;SDS011;50516;52.272;5.136;2023-06-19T03:22:45;13.00;;;8.13;;
64199;SDS011;50516;52.272;5.136;2023-06-19T03:25:11;10.00;;;8.05;;
64199;SDS011;50516;52.272;5.136;2023-06-19T03:27:37;11.40;;;8.77;;
64199;SDS011;50516;52.272;5.136;2023-06-19T03:30:03;12.15;;;7.68;;
64199;SDS011;50516;52.272;5.136;2023-06-19T03:32:33;10.45;;;8.40;;
64199;SDS011;50516;52.272;5.136;2023-06-19T03:34:58;11.27;;;8.95;;
64199;SDS011;50516;52.272;5.136;2023-06-19T03:37:24;10.43;;;9.20;;
64199;SDS011;50516;52.272;5.136;2023-06-19T03:39:50;16.67;;;9.63;;
64199;SDS011;50516;52.272;5.136;2023-06-19T03:42:15;12.60;;;10.55;;
64199;SDS011;50516;52.272;5.136;2023-06-19T03:44:40;16.00;;;10.07;;
64199;SDS011;50516;52.272;5.136;2023-06-19T03:47:06;14.20;;;10.63;;
64199;SDS011;50516;52.272;5.136;2023-06-19T03:49:31;14.18;;;10.23;;
64199;SDS011;50516;52.272;5.136;2023-06-19T03:51:57;11.85;;;9.73;;
64199;SDS011;50516;52.272;5.136;2023-06-19T03:54:22;15.65;;;12.32;;
64199;SDS011;50516;52.272;5.136;2023-06-19T03:56:48;12.90;;;10.45;;
64199;SDS011;50516;52.272;5.136;2023-06-19T03:59:13;14.07;;;10.65;;
64199;SDS011;50516;52.272;5.136;2023-06-19T04:01:38;14.10;;;11.23;;
64199;SDS011;50516;52.272;5.136;2023-06-19T04:04:03;14.80;;;11.27;;
64199;SDS011;50516;52.272;5.136;2023-06-19T04:06:29;15.98;;;12.38;;
64199;SDS011;50516;52.272;5.136;2023-06-19T04:08:54;15.82;;;12.52;;
64199;SDS011;50516;52.272;5.136;2023-06-19T04:11:19;15.05;;;13.02;;
64199;SDS011;50516;52.272;5.136;2023-06-19T04:13:45;15.50;;;13.32;;
64199;SDS011;50516;52.272;5.136;2023-06-19T04:16:11;15.93;;;13.77;;
64199;SDS011;50516;52.272;5.136;2023-06-19T04:18:36;16.50;;;14.68;;
64199;SDS011;50516;52.272;5.136;2023-06-19T04:21:02;18.30;;;14.85;;
64199;SDS011;50516;52.272;5.136;2023-06-19T04:23:27;21.17;;;16.33;;
64199;SDS011;50516;52.272;5.136;2023-06-19T04:25:52;21.58;;;17.67;;
64199;SDS011;50516;52.272;5.136;2023-06-19T04:28:18;22.00;;;16.75;;
64199;SDS011;50516;52.272;5.136;2023-06-19T04:30:43;19.83;;;16.58;;
64199;SDS011;50516;52.272;5.136;2023-06-19T04:33:08;25.17;;;20.35;;
64199;SDS011;50516;52.272;5.136;2023-06-19T04:35:34;32.55;;;21.48;;
64199;SDS011;50516;52.272;5.136;2023-06-19T04:38:04;24.95;;;19.23;;
64199;SDS011;50516;52.272;5.136;2023-06-19T04:40:33;26.15;;;20.95;;
64199;SDS011;50516;52.272;5.136;2023-06-19T04:42:59;23.52;;;19.10;;
64199;SDS011;50516;52.272;5.136;2023-06-19T04:45:26;22.40;;;16.67;;
64199;SDS011;50516;52.272;5.136;2023-06-19T04:47:51;19.02;;;15.60;;
64199;SDS011;50516;52.272;5.136;2023-06-19T04:50:16;18.77;;;14.73;;
64199;SDS011;50516;52.272;5.136;2023-06-19T04:52:42;16.35;;;13.30;;
64199;SDS011;50516;52.272;5.136;2023-06-19T04:55:07;16.40;;;12.90;;
64199;SDS011;50516;52.272;5.136;2023-06-19T04:57:36;15.85;;;11.45;;
64199;SDS011;50516;52.272;5.136;2023-06-19T05:00:04;15.77;;;11.63;;
64199;SDS011;50516;52.272;5.136;2023-06-19T05:02:35;12.88;;;9.57;;
64199;SDS011;50516;52.272;5.136;2023-06-19T05:05:00;11.00;;;9.60;;
64199;SDS011;50516;52.272;5.136;2023-06-19T05:07:31;9.27;;;8.27;;
64199;SDS011;50516;52.272;5.136;2023-06-19T05:09:57;8.55;;;6.95;;
64199;SDS011;50516;52.272;5.136;2023-06-19T05:12:23;9.10;;;6.00;;
64199;SDS011;50516;52.272;5.136;2023-06-19T05:14:48;7.22;;;5.45;;
64199;SDS011;50516;52.272;5.136;2023-06-19T05:17:14;6.47;;;4.70;;
64199;SDS011;50516;52.272;5.136;2023-06-19T05:19:39;9.57;;;4.65;;
64199;SDS011;50516;52.272;5.136;2023-06-19T05:22:05;8.65;;;5.40;;
64199;SDS011;50516;52.272;5.136;2023-06-19T05:24:31;6.63;;;4.78;;
64199;SDS011;50516;52.272;5.136;2023-06-19T05:26:56;5.50;;;4.68;;
64199;SDS011;50516;52.272;5.136;2023-06-19T05:29:21;6.68;;;5.15;;
64199;SDS011;50516;52.272;5.136;2023-06-19T05:31:47;7.15;;;5.45;;
64199;SDS011;50516;52.272;5.136;2023-06-19T05:34:12;6.63;;;5.93;;
64199;SDS011;50516;52.272;5.136;2023-06-19T05:36:38;6.38;;;5.32;;
64199;SDS011;50516;52.272;5.136;2023-06-19T05:39:03;8.07;;;5.32;;
64199;SDS011;50516;52.272;5.136;2023-06-19T05:41:29;9.10;;;5.45;;
64199;SDS011;50516;52.272;5.136;2023-06-19T05:43:55;9.07;;;6.22;;
64199;SDS011;50516;52.272;5.136;2023-06-19T05:46:21;6.22;;;5.10;;
64199;SDS011;50516;52.272;5.136;2023-06-19T05:48:47;6.85;;;5.93;;
64199;SDS011;50516;52.272;5.136;2023-06-19T05:51:12;10.27;;;6.15;;
64199;SDS011;50516;52.272;5.136;2023-06-19T05:53:37;7.43;;;6.00;;
64199;SDS011;50516;52.272;5.136;2023-06-19T05:56:04;10.40;;;5.85;;
64199;SDS011;50516;52.272;5.136;2023-06-19T05:58:30;7.90;;;5.57;;
64199;SDS011;50516;52.272;5.136;2023-06-19T06:00:55;6.93;;;4.95;;
64199;SDS011;50516;52.272;5.136;2023-06-19T06:03:23;6.53;;;5.18;;
64199;SDS011;50516;52.272;5.136;2023-06-19T06:05:52;7.22;;;5.75;;
64199;SDS011;50516;52.272;5.136;2023-06-19T06:08:17;6.70;;;5.53;;
64199;SDS011;50516;52.272;5.136;2023-06-19T06:10:43;7.28;;;5.75;;
64199;SDS011;50516;52.272;5.136;2023-06-19T06:13:08;8.13;;;5.57;;
64199;SDS011;50516;52.272;5.136;2023-06-19T06:15:33;7.25;;;5.65;;
64199;SDS011;50516;52.272;5.136;2023-06-19T06:17:59;10.70;;;6.57;;
64199;SDS011;50516;52.272;5.136;2023-06-19T06:20:24;8.75;;;6.43;;
64199;SDS011;50516;52.272;5.136;2023-06-19T06:22:50;9.27;;;6.70;;
64199;SDS011;50516;52.272;5.136;2023-06-19T06:25:15;9.40;;;6.28;;
64199;SDS011;50516;52.272;5.136;2023-06-19T06:27:41;11.40;;;6.55;;
64199;SDS011;50516;52.272;5.136;2023-06-19T06:30:07;10.23;;;7.53;;
64199;SDS011;50516;52.272;5.136;2023-06-19T06:32:32;12.23;;;8.18;;
64199;SDS011;50516;52.272;5.136;2023-06-19T06:34:58;13.35;;;8.75;;
64199;SDS011;50516;52.272;5.136;2023-06-19T06:37:24;13.90;;;8.57;;
64199;SDS011;50516;52.272;5.136;2023-06-19T06:39:50;15.75;;;9.60;;
64199;SDS011;50516;52.272;5.136;2023-06-19T06:42:15;13.63;;;10.07;;
64199;SDS011;50516;52.272;5.136;2023-06-19T06:44:41;17.55;;;11.00;;
64199;SDS011;50516;52.272;5.136;2023-06-19T06:47:06;13.20;;;9.70;;
64199;SDS011;50516;52.272;5.136;2023-06-19T06:49:32;15.45;;;10.77;;
64199;SDS011;50516;52.272;5.136;2023-06-19T06:51:57;16.27;;;12.52;;
64199;SDS011;50516;52.272;5.136;2023-06-19T06:54:22;14.80;;;11.13;;
64199;SDS011;50516;52.272;5.136;2023-06-19T06:56:48;20.35;;;12.60;;
64199;SDS011;50516;52.272;5.136;2023-06-19T06:59:13;19.73;;;13.95;;
64199;SDS011;50516;52.272;5.136;2023-06-19T07:01:41;18.73;;;13.85;;
64199;SDS011;50516;52.272;5.136;2023-06-19T07:04:06;16.73;;;13.70;;
64199;SDS011;50516;52.272;5.136;2023-06-19T07:06:32;18.67;;;14.77;;
64199;SDS011;50516;52.272;5.136;2023-06-19T07:08:57;21.60;;;14.05;;
64199;SDS011;50516;52.272;5.136;2023-06-19T07:11:22;19.70;;;15.20;;
64199;SDS011;50516;52.272;5.136;2023-06-19T07:13:48;17.65;;;12.93;;
64199;SDS011;50516;52.272;5.136;2023-06-19T07:16:13;23.40;;;17.13;;
64199;SDS011;50516;52.272;5.136;2023-06-19T07:18:39;22.58;;;16.20;;
64199;SDS011;50516;52.272;5.136;2023-06-19T07:21:06;20.00;;;16.73;;
64199;SDS011;50516;52.272;5.136;2023-06-19T07:23:37;24.15;;;17.20;;
64199;SDS011;50516;52.272;5.136;2023-06-19T07:26:03;20.48;;;16.33;;
64199;SDS011;50516;52.272;5.136;2023-06-19T07:28:28;26.40;;;17.25;;
64199;SDS011;50516;52.272;5.136;2023-06-19T07:30:55;21.55;;;16.13;;
64199;SDS011;50516;52.272;5.136;2023-06-19T07:33:20;23.98;;;18.98;;
64199;SDS011;50516;52.272;5.136;2023-06-19T07:35:45;23.25;;;17.23;;
64199;SDS011;50516;52.272;5.136;2023-06-19T07:38:10;21.70;;;18.48;;
64199;SDS011;50516;52.272;5.136;2023-06-19T07:40:36;26.88;;;19.13;;
64199;SDS011;50516;52.272;5.136;2023-06-19T07:43:01;24.88;;;18.17;;
64199;SDS011;50516;52.272;5.136;2023-06-19T07:45:26;22.55;;;18.25;;
64199;SDS011;50516;52.272;5.136;2023-06-19T07:47:55;24.83;;;17.75;;
64199;SDS011;50516;52.272;5.136;2023-06-19T07:50:23;20.23;;;16.13;;
64199;SDS011;50516;52.272;5.136;2023-06-19T07:52:49;23.00;;;17.15;;
64199;SDS011;50516;52.272;5.136;2023-06-19T07:55:14;23.67;;;17.17;;
64199;SDS011;50516;52.272;5.136;2023-06-19T07:57:39;22.00;;;16.20;;
64199;SDS011;50516;52.272;5.136;2023-06-19T08:00:05;20.63;;;15.75;;
64199;SDS011;50516;52.272;5.136;2023-06-19T08:02:37;21.80;;;15.73;;
64199;SDS011;50516;52.272;5.136;2023-06-19T08:05:03;23.27;;;16.55;;
64199;SDS011;50516;52.272;5.136;2023-06-19T08:07:29;19.20;;;16.02;;
64199;SDS011;50516;52.272;5.136;2023-06-19T08:09:54;20.83;;;15.15;;
64199;SDS011;50516;52.272;5.136;2023-06-19T08:12:19;17.58;;;13.55;;
64199;SDS011;50516;52.272;5.136;2023-06-19T08:14:44;23.70;;;14.00;;
64199;SDS011;50516;52.272;5.136;2023-06-19T08:17:10;17.77;;;13.35;;
64199;SDS011;50516;52.272;5.136;2023-06-19T08:19:35;15.95;;;10.88;;
64199;SDS011;50516;52.272;5.136;2023-06-19T08:22:00;18.90;;;14.07;;
64199;SDS011;50516;52.272;5.136;2023-06-19T08:24:26;16.90;;;10.65;;
64199;SDS011;50516;52.272;5.136;2023-06-19T08:26:51;14.95;;;10.85;;
64199;SDS011;50516;52.272;5.136;2023-06-19T08:29:17;16.85;;;11.32;;
64199;SDS011;50516;52.272;5.136;2023-06-19T08:31:43;15.02;;;12.15;;
64199;SDS011;50516;52.272;5.136;2023-06-19T08:34:08;13.82;;;10.45;;
64199;SDS011;50516;52.272;5.136;2023-06-19T08:36:35;15.80;;;11.90;;
64199;SDS011;50516;52.272;5.136;2023-06-19T08:39:01;15.20;;;10.43;;
64199;SDS011;50516;52.272;5.136;2023-06-19T08:41:26;15.40;;;12.60;;
64199;SDS011;50516;52.272;5.136;2023-06-19T08:43:52;17.80;;;12.95;;
64199;SDS011;50516;52.272;5.136;2023-06-19T08:46:18;13.27;;;11.02;;
64199;SDS011;50516;52.272;5.136;2023-06-19T08:48:44;13.77;;;10.60;;
64199;SDS011;50516;52.272;5.136;2023-06-19T08:51:09;19.52;;;11.73;;
64199;SDS011;50516;52.272;5.136;2023-06-19T08:53:37;11.98;;;9.80;;
64199;SDS011;50516;52.272;5.136;2023-06-19T08:56:10;14.45;;;10.23;;
64199;SDS011;50516;52.272;5.136;2023-06-19T08:58:35;12.32;;;11.00;;
64199;SDS011;50516;52.272;5.136;2023-06-19T09:01:01;13.32;;;10.38;;
64199;SDS011;50516;52.272;5.136;2023-06-19T09:03:27;13.25;;;11.57;;
64199;SDS011;50516;52.272;5.136;2023-06-19T09:05:52;14.55;;;12.30;;
64199;SDS011;50516;52.272;5.136;2023-06-19T09:08:18;17.00;;;10.25;;
64199;SDS011;50516;52.272;5.136;2023-06-19T09:13:29;12.55;;;10.57;;
64199;SDS011;50516;52.272;5.136;2023-06-19T09:15:59;12.63;;;9.57;;
64199;SDS011;50516;52.272;5.136;2023-06-19T09:18:46;13.90;;;9.65;;
64199;SDS011;50516;52.272;5.136;2023-06-19T09:21:19;11.98;;;9.95;;
64199;SDS011;50516;52.272;5.136;2023-06-19T09:23:47;10.77;;;9.55;;
64199;SDS011;50516;52.272;5.136;2023-06-19T09:26:17;14.15;;;9.73;;
64199;SDS011;50516;52.272;5.136;2023-06-19T09:28:44;11.57;;;10.27;;
64199;SDS011;50516;52.272;5.136;2023-06-19T09:31:09;14.70;;;11.20;;
64199;SDS011;50516;52.272;5.136;2023-06-19T09:33:35;18.45;;;11.75;;
64199;SDS011;50516;52.272;5.136;2023-06-19T09:36:02;11.77;;;9.43;;
64199;SDS011;50516;52.272;5.136;2023-06-19T09:38:29;18.17;;;12.25;;
64199;SDS011;50516;52.272;5.136;2023-06-19T09:40:57;11.27;;;9.45;;
64199;SDS011;50516;52.272;5.136;2023-06-19T09:43:25;15.82;;;8.52;;
64199;SDS011;50516;52.272;5.136;2023-06-19T09:45:58;13.15;;;10.35;;
64199;SDS011;50516;52.272;5.136;2023-06-19T09:48:29;13.48;;;10.57;;
64199;SDS011;50516;52.272;5.136;2023-06-19T09:51:17;15.50;;;11.02;;
64199;SDS011;50516;52.272;5.136;2023-06-19T09:53:46;15.13;;;10.63;;
64199;SDS011;50516;52.272;5.136;2023-06-19T09:56:13;18.08;;;11.32;;
64199;SDS011;50516;52.272;5.136;2023-06-19T09:58:39;13.02;;;9.10;;
64199;SDS011;50516;52.272;5.136;2023-06-19T10:01:07;11.73;;;8.95;;
64199;SDS011;50516;52.272;5.136;2023-06-19T10:03:33;15.27;;;10.27;;
64199;SDS011;50516;52.272;5.136;2023-06-19T10:06:00;17.13;;;10.43;;
64199;SDS011;50516;52.272;5.136;2023-06-19T10:08:44;18.33;;;11.45;;
64199;SDS011;50516;52.272;5.136;2023-06-19T10:11:11;19.95;;;12.63;;
64199;SDS011;50516;52.272;5.136;2023-06-19T10:13:41;14.57;;;12.75;;
64199;SDS011;50516;52.272;5.136;2023-06-19T10:16:08;14.77;;;10.05;;
64199;SDS011;50516;52.272;5.136;2023-06-19T10:18:45;19.58;;;10.38;;
64199;SDS011;50516;52.272;5.136;2023-06-19T10:21:18;14.30;;;9.07;;
64199;SDS011;50516;52.272;5.136;2023-06-19T10:23:55;11.95;;;8.75;;
64199;SDS011;50516;52.272;5.136;2023-06-19T10:26:31;9.60;;;7.78;;
64199;SDS011;50516;52.272;5.136;2023-06-19T10:28:59;10.73;;;8.10;;
64199;SDS011;50516;52.272;5.136;2023-06-19T10:31:25;11.57;;;7.53;;
64199;SDS011;50516;52.272;5.136;2023-06-19T10:33:50;17.67;;;9.10;;
64199;SDS011;50516;52.272;5.136;2023-06-19T10:36:17;11.00;;;8.10;;
64199;SDS011;50516;52.272;5.136;2023-06-19T10:38:44;15.48;;;12.13;;
64199;SDS011;50516;52.272;5.136;2023-06-19T10:41:19;19.60;;;13.32;;
64199;SDS011;50516;52.272;5.136;2023-06-19T10:43:53;19.42;;;12.80;;
64199;SDS011;50516;52.272;5.136;2023-06-19T10:46:18;17.33;;;13.55;;
64199;SDS011;50516;52.272;5.136;2023-06-19T10:48:46;16.25;;;13.25;;
64199;SDS011;50516;52.272;5.136;2023-06-19T10:51:11;14.02;;;12.35;;
64199;SDS011;50516;52.272;5.136;2023-06-19T10:53:36;16.27;;;12.52;;
64199;SDS011;50516;52.272;5.136;2023-06-19T10:56:02;21.10;;;16.02;;
64199;SDS011;50516;52.272;5.136;2023-06-19T10:58:28;14.65;;;12.05;;
64199;SDS011;50516;52.272;5.136;2023-06-19T11:00:54;12.80;;;11.48;;
64199;SDS011;50516;52.272;5.136;2023-06-19T11:03:20;14.23;;;12.73;;
64199;SDS011;50516;52.272;5.136;2023-06-19T11:05:46;11.70;;;9.75;;
64199;SDS011;50516;52.272;5.136;2023-06-19T11:08:17;12.40;;;9.85;;
64199;SDS011;50516;52.272;5.136;2023-06-19T11:10:43;19.48;;;14.60;;
64199;SDS011;50516;52.272;5.136;2023-06-19T11:13:13;15.40;;;11.75;;
64199;SDS011;50516;52.272;5.136;2023-06-19T11:15:43;15.88;;;12.75;;
64199;SDS011;50516;52.272;5.136;2023-06-19T11:18:09;13.65;;;12.13;;
64199;SDS011;50516;52.272;5.136;2023-06-19T11:20:44;12.82;;;10.35;;
64199;SDS011;50516;52.272;5.136;2023-06-19T11:23:12;16.10;;;12.68;;
64199;SDS011;50516;52.272;5.136;2023-06-19T11:25:38;16.55;;;12.75;;
64199;SDS011;50516;52.272;5.136;2023-06-19T11:28:06;17.10;;;13.38;;
64199;SDS011;50516;52.272;5.136;2023-06-19T11:30:36;15.15;;;12.43;;
64199;SDS011;50516;52.272;5.136;2023-06-19T11:33:02;18.08;;;12.55;;
64199;SDS011;50516;52.272;5.136;2023-06-19T11:35:32;13.65;;;10.93;;
64199;SDS011;50516;52.272;5.136;2023-06-19T11:38:01;13.63;;;8.85;;
64199;SDS011;50516;52.272;5.136;2023-06-19T11:40:27;12.30;;;7.97;;
64199;SDS011;50516;52.272;5.136;2023-06-19T11:42:54;14.82;;;8.15;;
64199;SDS011;50516;52.272;5.136;2023-06-19T11:45:20;13.50;;;8.07;;
64199;SDS011;50516;52.272;5.136;2023-06-19T11:47:46;13.32;;;8.18;;
64199;SDS011;50516;52.272;5.136;2023-06-19T11:50:14;14.32;;;9.13;;
64199;SDS011;50516;52.272;5.136;2023-06-19T11:52:41;14.73;;;11.43;;
64199;SDS011;50516;52.272;5.136;2023-06-19T11:55:08;14.88;;;10.43;;
64199;SDS011;50516;52.272;5.136;2023-06-19T11:57:34;14.57;;;10.95;;
64199;SDS011;50516;52.272;5.136;2023-06-19T11:59:59;12.10;;;8.35;;
64199;SDS011;50516;52.272;5.136;2023-06-19T12:02:24;11.80;;;8.48;;
64199;SDS011;50516;52.272;5.136;2023-06-19T12:04:50;14.65;;;8.65;;
64199;SDS011;50516;52.272;5.136;2023-06-19T12:07:15;11.20;;;9.05;;
64199;SDS011;50516;52.272;5.136;2023-06-19T12:09:41;14.07;;;10.38;;
64199;SDS011;50516;52.272;5.136;2023-06-19T12:12:08;13.23;;;9.18;;
64199;SDS011;50516;52.272;5.136;2023-06-19T12:14:33;18.05;;;10.20;;
64199;SDS011;50516;52.272;5.136;2023-06-19T12:16:59;10.75;;;8.55;;
64199;SDS011;50516;52.272;5.136;2023-06-19T12:19:25;15.52;;;9.85;;
64199;SDS011;50516;52.272;5.136;2023-06-19T12:21:51;11.35;;;8.70;;
64199;SDS011;50516;52.272;5.136;2023-06-19T12:24:16;15.73;;;9.55;;
64199;SDS011;50516;52.272;5.136;2023-06-19T12:26:41;11.98;;;7.85;;
64199;SDS011;50516;52.272;5.136;2023-06-19T12:29:07;10.77;;;7.50;;
64199;SDS011;50516;52.272;5.136;2023-06-19T12:31:32;10.77;;;8.07;;
64199;SDS011;50516;52.272;5.136;2023-06-19T12:33:58;13.70;;;9.77;;
64199;SDS011;50516;52.272;5.136;2023-06-19T12:36:25;11.20;;;8.70;;
64199;SDS011;50516;52.272;5.136;2023-06-19T12:38:54;13.70;;;9.75;;
64199;SDS011;50516;52.272;5.136;2023-06-19T12:41:20;14.25;;;7.15;;
64199;SDS011;50516;52.272;5.136;2023-06-19T12:43:46;11.15;;;7.20;;
64199;SDS011;50516;52.272;5.136;2023-06-19T12:46:11;9.68;;;8.68;;
64199;SDS011;50516;52.272;5.136;2023-06-19T12:48:37;8.95;;;7.38;;
64199;SDS011;50516;52.272;5.136;2023-06-19T12:51:02;10.60;;;8.25;;
64199;SDS011;50516;52.272;5.136;2023-06-19T12:53:28;11.35;;;6.47;;
64199;SDS011;50516;52.272;5.136;2023-06-19T12:55:56;10.50;;;6.78;;
64199;SDS011;50516;52.272;5.136;2023-06-19T12:58:22;8.70;;;6.80;;
64199;SDS011;50516;52.272;5.136;2023-06-19T13:00:48;11.38;;;7.93;;
64199;SDS011;50516;52.272;5.136;2023-06-19T13:03:13;12.55;;;7.50;;
64199;SDS011;50516;52.272;5.136;2023-06-19T13:05:38;10.90;;;6.75;;
64199;SDS011;50516;52.272;5.136;2023-06-19T13:08:04;11.57;;;7.22;;
64199;SDS011;50516;52.272;5.136;2023-06-19T13:10:29;7.55;;;6.53;;
64199;SDS011;50516;52.272;5.136;2023-06-19T13:12:54;11.82;;;7.63;;
64199;SDS011;50516;52.272;5.136;2023-06-19T13:15:19;11.82;;;8.35;;
64199;SDS011;50516;52.272;5.136;2023-06-19T13:17:45;9.65;;;7.50;;
64199;SDS011;50516;52.272;5.136;2023-06-19T13:20:10;9.30;;;7.18;;
64199;SDS011;50516;52.272;5.136;2023-06-19T13:22:36;10.60;;;6.60;;
64199;SDS011;50516;52.272;5.136;2023-06-19T13:25:01;14.32;;;9.32;;
64199;SDS011;50516;52.272;5.136;2023-06-19T13:27:27;10.63;;;8.07;;
64199;SDS011;50516;52.272;5.136;2023-06-19T13:29:53;9.48;;;6.97;;
64199;SDS011;50516;52.272;5.136;2023-06-19T13:32:19;11.70;;;7.90;;
64199;SDS011;50516;52.272;5.136;2023-06-19T13:34:44;10.80;;;9.07;;
64199;SDS011;50516;52.272;5.136;2023-06-19T13:37:09;13.07;;;10.00;;
64199;SDS011;50516;52.272;5.136;2023-06-19T13:39:35;10.98;;;8.40;;
64199;SDS011;50516;52.272;5.136;2023-06-19T13:42:00;10.88;;;8.52;;
64199;SDS011;50516;52.272;5.136;2023-06-19T13:44:26;10.07;;;7.03;;
64199;SDS011;50516;52.272;5.136;2023-06-19T13:46:51;11.48;;;8.45;;
64199;SDS011;50516;52.272;5.136;2023-06-19T13:49:17;13.07;;;8.77;;
64199;SDS011;50516;52.272;5.136;2023-06-19T13:51:42;8.32;;;6.35;;
64199;SDS011;50516;52.272;5.136;2023-06-19T13:54:09;16.05;;;7.95;;
64199;SDS011;50516;52.272;5.136;2023-06-19T13:56:34;11.30;;;7.63;;
64199;SDS011;50516;52.272;5.136;2023-06-19T13:58:59;12.00;;;7.25;;
64199;SDS011;50516;52.272;5.136;2023-06-19T14:01:25;9.15;;;6.75;;
64199;SDS011;50516;52.272;5.136;2023-06-19T14:03:51;11.63;;;7.03;;
64199;SDS011;50516;52.272;5.136;2023-06-19T14:06:16;10.75;;;7.70;;
64199;SDS011;50516;52.272;5.136;2023-06-19T14:08:42;13.63;;;6.63;;
64199;SDS011;50516;52.272;5.136;2023-06-19T14:11:07;12.85;;;7.82;;
64199;SDS011;50516;52.272;5.136;2023-06-19T14:13:33;9.65;;;6.82;;
64199;SDS011;50516;52.272;5.136;2023-06-19T14:15:58;12.45;;;7.68;;
64199;SDS011;50516;52.272;5.136;2023-06-19T14:18:23;10.52;;;7.65;;
64199;SDS011;50516;52.272;5.136;2023-06-19T14:20:48;11.05;;;7.72;;
64199;SDS011;50516;52.272;5.136;2023-06-19T14:23:14;9.13;;;7.20;;
64199;SDS011;50516;52.272;5.136;2023-06-19T14:25:39;9.35;;;7.10;;
64199;SDS011;50516;52.272;5.136;2023-06-19T14:28:04;12.38;;;7.35;;
64199;SDS011;50516;52.272;5.136;2023-06-19T14:30:30;8.98;;;6.90;;
64199;SDS011;50516;52.272;5.136;2023-06-19T14:32:55;10.20;;;7.45;;